Time;durP1;ratioP1;P1;durP2;ratioP2;P2;SDS_P1;SDS_P2;PMS_P1;PMS_P2;Temp;Humidity;BMP_temperature;BMP_pressure;BME280_temperature;BME280_humidity;BME280_pressure;Samples;Min_cycle;Max_cycle;Signal;HPM_P1;HPM_P2
2022/01/18 00:00:24;;;;;;;35.15;21.55;;;;;;;-1.52;100.00;97247.88;5093256;28;20040;-72
2022/01/18 00:02:50;;;;;;;38.67;22.83;;;;;;;-1.50;100.00;97245.22;5093516;28;20162;-72
2022/01/18 00:27:12;;;;;;;32.50;21.17;;;;;;;-1.63;100.00;97285.91;5044558;28;20130;-73
2022/01/18 00:29:43;;;;;;;31.85;19.92;;;;;;;-1.60;100.00;97296.00;5090628;28;20104;-73
2022/01/18 00:32:19;;;;;;;43.03;22.38;;;;;;;-1.56;100.00;97300.06;5111133;28;20085;-72
2022/01/18 00:34:50;;;;;;;37.30;22.75;;;;;;;-1.54;100.00;97305.13;5110646;28;20051;-75
2022/01/18 00:37:32;;;;;;;34.78;20.98;;;;;;;-1.58;100.00;97304.44;5110825;28;20684;-74
2022/01/18 00:39:58;;;;;;;37.03;21.65;;;;;;;-1.59;100.00;97307.88;5109372;28;20047;-72
2022/01/18 00:42:24;;;;;;;38.25;23.73;;;;;;;-1.59;100.00;97307.88;5110779;28;20113;-71
2022/01/18 00:44:51;;;;;;;39.42;23.88;;;;;;;-1.61;100.00;97314.81;5110616;28;20117;-71
2022/01/18 00:47:17;;;;;;;42.47;23.02;;;;;;;-1.57;100.00;97322.25;5109598;28;20044;-74
2022/01/18 00:49:45;;;;;;;37.88;23.80;;;;;;;-1.54;100.00;97326.41;5109348;28;20471;-72
2022/01/18 00:52:12;;;;;;;40.13;23.20;;;;;;;-1.55;100.00;97339.25;5110595;28;20040;-72
2022/01/18 00:54:41;;;;;;;37.00;21.60;;;;;;;-1.53;100.00;97340.00;5092500;28;20112;-70
2022/01/18 00:57:07;;;;;;;38.67;22.33;;;;;;;-1.53;100.00;97343.41;5109873;28;20141;-71
2022/01/18 00:59:33;;;;;;;37.38;22.15;;;;;;;-1.54;100.00;97351.16;5092500;28;20044;-72
2022/01/18 01:01:59;;;;;;;40.40;23.58;;;;;;;-1.54;100.00;97357.09;5092052;28;20055;-71
2022/01/18 01:04:31;;;;;;;39.58;22.88;;;;;;;-1.59;100.00;97359.88;5110547;28;20473;-72
2022/01/18 01:06:57;;;;;;;41.58;23.90;;;;;;;-1.58;100.00;97360.69;5110014;28;20485;-72
2022/01/18 01:09:23;;;;;;;39.90;23.48;;;;;;;-1.57;100.00;97364.88;5092230;28;20076;-73
2022/01/18 01:11:51;;;;;;;40.53;24.05;;;;;;;-1.62;99.89;97370.25;5092199;28;20063;-72
2022/01/18 01:14:21;;;;;;;50.50;26.58;;;;;;;-1.61;100.00;97371.06;5113716;28;20054;-72
2022/01/18 01:19:46;;;;;;;57.03;28.20;;;;;;;-1.64;100.00;97389.91;5092642;28;20054;-71
2022/01/18 01:44:07;;;;;;;47.08;26.27;;;;;;;-1.52;100.00;97420.94;5092998;28;20088;-72
2022/01/18 01:46:34;;;;;;;47.85;26.00;;;;;;;-1.56;100.00;97425.38;5112062;28;20106;-72
2022/01/18 01:49:02;;;;;;;53.90;27.65;;;;;;;-1.53;100.00;97435.47;5116206;28;20070;-72
2022/01/18 01:51:31;;;;;;;46.03;27.55;;;;;;;-1.52;100.00;97431.19;5118512;28;20782;-71
2022/01/18 01:54:04;;;;;;;47.42;27.05;;;;;;;-1.53;100.00;97440.56;5125189;28;20052;-73
2022/01/18 01:56:30;;;;;;;55.00;31.30;;;;;;;-1.53;100.00;97435.47;5124984;28;20115;-71
2022/01/18 01:58:56;;;;;;;52.28;28.40;;;;;;;-1.53;100.00;97442.31;5124833;28;20224;-72
2022/01/18 02:01:22;;;;;;;55.58;30.77;;;;;;;-1.54;100.00;97438.94;5107723;28;20039;-73
2022/01/18 02:03:48;;;;;;;51.40;28.02;;;;;;;-1.57;100.00;97444.16;5125261;28;20048;-73
2022/01/18 02:06:14;;;;;;;54.60;30.10;;;;;;;-1.57;100.00;97459.50;5124900;28;20131;-72
2022/01/18 02:08:40;;;;;;;51.35;29.63;;;;;;;-1.61;100.00;97458.84;5125939;28;20051;-73
2022/01/18 02:11:06;;;;;;;53.50;29.10;;;;;;;-1.57;100.00;97460.34;5107653;28;20043;-73
2022/01/18 02:13:33;;;;;;;54.33;31.02;;;;;;;-1.57;100.00;97469.75;5128046;28;20059;-72
2022/01/18 02:22:04;;;;;;;54.00;31.02;;;;;;;-1.52;100.00;97488.28;5124329;28;20069;-71
2022/01/18 02:24:07;;;;;;;41.97;23.77;;;;;;;-1.49;100.00;97502.66;5108558;28;20052;-72
2022/01/18 02:26:33;;;;;;;43.97;25.58;;;;;;;-1.48;100.00;97504.31;5123651;28;20054;-72
2022/01/18 02:29:00;;;;;;;49.85;24.02;;;;;;;-1.49;100.00;97503.50;5123815;28;20052;-74
2022/01/18 02:31:26;;;;;;;42.58;22.67;;;;;;;-1.43;100.00;97513.44;5120566;28;20055;-71
2022/01/18 02:33:52;;;;;;;39.38;22.98;;;;;;;-1.41;100.00;97516.78;5120367;28;20062;-70
2022/01/18 02:36:18;;;;;;;46.25;28.42;;;;;;;-1.35;100.00;97520.78;5102927;28;20066;-72
2022/01/18 02:38:44;;;;;;;44.05;26.38;;;;;;;-1.33;100.00;97530.03;5120547;28;20047;-72
2022/01/18 02:41:12;;;;;;;46.08;25.83;;;;;;;-1.33;100.00;97537.72;5120009;28;20043;-71
2022/01/18 02:43:50;;;;;;;44.85;25.13;;;;;;;-1.25;100.00;97543.34;5121116;28;20051;-72
2022/01/18 02:46:17;;;;;;;51.45;34.58;;;;;;;-1.24;100.00;97554.38;5118601;28;20046;-71
2022/01/18 02:48:43;;;;;;;36.00;24.40;;;;;;;-1.22;100.00;97553.44;5120722;28;20059;-71
2022/01/18 02:51:09;;;;;;;37.13;24.42;;;;;;;-1.21;100.00;97565.31;5121609;28;20054;-72
2022/01/18 02:53:55;;;;;;;29.65;19.67;;;;;;;-1.21;99.73;97557.63;5121140;28;20548;-71
2022/01/18 02:56:22;;;;;;;37.22;23.45;;;;;;;-1.17;99.14;97563.44;5122003;28;20058;-72
2022/01/18 02:58:48;;;;;;;34.05;21.05;;;;;;;-1.17;99.20;97564.28;5121631;28;20051;-72
2022/01/18 03:03:59;;;;;;;27.35;17.35;;;;;;;-1.22;98.63;97568.78;5122994;28;20066;-72
2022/01/18 03:06:27;;;;;;;24.95;17.70;;;;;;;-1.23;98.48;97576.50;5122309;28;20050;-70
2022/01/18 03:08:53;;;;;;;27.17;18.65;;;;;;;-1.25;98.48;97579.16;5122337;28;20062;-72
2022/01/18 03:11:19;;;;;;;17.83;13.27;;;;;;;-1.28;98.11;97594.66;5126156;28;20039;-72
2022/01/18 03:13:45;;;;;;;25.25;19.05;;;;;;;-1.29;98.31;97582.75;5103236;28;20086;-71
2022/01/18 03:16:11;;;;;;;26.45;17.23;;;;;;;-1.30;98.17;97611.78;5127852;27;20088;-72
2022/01/18 03:18:38;;;;;;;24.92;15.18;;;;;;;-1.28;97.97;97617.69;5140350;27;20051;-70
2022/01/18 03:21:05;;;;;;;25.02;16.95;;;;;;;-1.35;98.00;97618.00;5120409;27;20046;-71
2022/01/18 03:23:31;;;;;;;17.90;13.18;;;;;;;-1.32;98.21;97630.66;5137440;27;20062;-71
2022/01/18 03:26:00;;;;;;;21.23;15.23;;;;;;;-1.33;98.62;97634.94;5134013;27;20051;-71
2022/01/18 03:28:27;;;;;;;18.63;14.68;;;;;;;-1.35;98.48;97644.41;5134105;27;20059;-71
2022/01/18 03:30:58;;;;;;;17.13;15.18;;;;;;;-1.44;97.20;97639.66;5115409;27;20070;-72
2022/01/18 03:33:25;;;;;;;16.17;12.05;;;;;;;-1.44;96.98;97667.81;5122377;27;20055;-72
2022/01/18 03:35:52;;;;;;;15.73;12.00;;;;;;;-1.51;96.67;97658.75;5114252;28;20053;-71
2022/01/18 03:38:18;;;;;;;17.17;14.55;;;;;;;-1.55;96.75;97680.22;5088069;28;20039;-71
2022/01/18 03:40:44;;;;;;;15.80;14.20;;;;;;;-1.60;96.61;97689.81;5109518;28;20039;-71
2022/01/18 03:43:12;;;;;;;21.02;14.75;;;;;;;-1.67;96.72;97699.44;5095714;28;20139;-72
2022/01/18 03:45:43;;;;;;;10.85;9.82;;;;;;;-1.69;97.36;97708.09;5116727;28;20075;-73
2022/01/18 03:48:25;;;;;;;10.45;9.45;;;;;;;-1.71;97.76;97697.09;5110611;28;20040;-72
2022/01/18 03:50:51;;;;;;;12.38;11.18;;;;;;;-1.74;97.91;97717.69;5106068;28;20052;-73
2022/01/18 03:53:20;;;;;;;15.25;11.77;;;;;;;-1.74;97.96;97727.91;5107283;28;20058;-73
2022/01/18 03:55:46;;;;;;;12.77;11.57;;;;;;;-1.76;97.85;97725.41;5122178;28;20089;-73
2022/01/18 03:58:12;;;;;;;13.13;11.93;;;;;;;-1.75;97.50;97716.84;5117665;28;20044;-73
2022/01/18 04:00:40;;;;;;;10.60;9.32;;;;;;;-1.74;97.79;97733.88;5086208;28;20055;-74
2022/01/18 04:03:06;;;;;;;10.45;9.45;;;;;;;-1.76;97.26;97729.69;5108174;28;20426;-73
2022/01/18 04:05:32;;;;;;;10.93;9.40;;;;;;;-1.73;96.34;97734.66;5114213;28;20055;-73
2022/01/18 04:07:58;;;;;;;8.43;7.55;;;;;;;-1.77;96.27;97728.03;5114318;28;20039;-73
2022/01/18 04:10:24;;;;;;;11.73;10.73;;;;;;;-1.76;95.88;97729.69;5098033;28;20044;-72
2022/01/18 04:12:50;;;;;;;10.68;9.48;;;;;;;-1.77;96.17;97756.16;5102709;28;20055;-71
2022/01/18 04:15:17;;;;;;;10.55;9.00;;;;;;;-1.81;96.58;97758.00;5103297;28;20048;-72
2022/01/18 04:30:44;;;;;;;8.30;7.57;;;;;;;-1.83;96.16;97815.22;5100805;28;20044;-74
2022/01/18 04:33:10;;;;;;;10.55;7.13;;;;;;;-1.85;96.06;97816.97;5093216;28;20080;-73
2022/01/18 04:35:36;;;;;;;9.05;8.13;;;;;;;-1.82;96.26;97814.28;5073710;28;20424;-73
2022/01/18 04:38:02;;;;;;;8.68;7.93;;;;;;;-1.86;96.69;97825.53;5091253;28;20071;-73
2022/01/18 04:40:30;;;;;;;7.03;6.45;;;;;;;-1.81;96.13;97826.19;5090598;28;20090;-72
2022/01/18 04:51:10;;;;;;;5.80;5.28;;;;;;;-1.82;95.84;97850.09;5089862;28;20506;-73
2022/01/18 04:53:41;;;;;;;9.02;8.23;;;;;;;-1.86;95.37;97863.88;5090154;28;20071;-73
2022/01/18 04:56:13;;;;;;;7.03;6.43;;;;;;;-1.86;95.57;97871.53;5089730;28;20551;-73
2022/01/18 04:58:39;;;;;;;7.43;6.80;;;;;;;-1.87;95.53;97885.22;5072167;28;20055;-74
2022/01/18 05:01:06;;;;;;;5.82;5.32;;;;;;;-1.86;95.72;97897.09;5089554;28;20059;-73
2022/01/18 05:03:32;;;;;;;7.18;6.22;;;;;;;-1.85;95.69;97894.50;5089652;28;20192;-73
2022/01/18 05:06:01;;;;;;;4.85;4.47;;;;;;;-1.84;95.31;97903.00;5089725;28;20048;-73
2022/01/18 05:08:27;;;;;;;6.85;6.25;;;;;;;-1.84;95.29;97905.56;5090043;28;20443;-72
2022/01/18 05:10:56;;;;;;;6.35;5.75;;;;;;;-1.84;95.22;97896.19;5089456;28;20056;-72
2022/01/18 05:21:28;;;;;;;5.50;5.05;;;;;;;-1.81;94.07;97938.69;5089212;28;20361;-73
2022/01/18 05:23:57;;;;;;;8.07;7.47;;;;;;;-1.84;94.52;97946.47;5092929;28;20066;-74
2022/01/18 05:26:23;;;;;;;6.00;5.35;;;;;;;-1.85;95.05;97962.69;5093492;28;20036;-72
2022/01/18 05:28:49;;;;;;;6.15;5.65;;;;;;;-1.87;94.42;97951.69;5075615;28;20059;-73
2022/01/18 05:31:15;;;;;;;5.82;5.32;;;;;;;-1.86;93.75;97938.00;5093755;28;20063;-73
2022/01/18 05:33:42;;;;;;;5.35;4.93;;;;;;;-1.85;93.91;97970.34;5094394;28;20507;-72
2022/01/18 05:36:12;;;;;;;7.13;6.53;;;;;;;-1.87;94.17;97955.09;5093295;28;20051;-72
2022/01/18 05:38:38;;;;;;;6.78;6.22;;;;;;;-1.84;93.86;97972.03;5093887;28;20468;-73
2022/01/18 05:41:08;;;;;;;7.03;6.32;;;;;;;-1.85;94.12;97980.59;5093222;28;20044;-73
2022/01/18 05:43:37;;;;;;;6.75;6.15;;;;;;;-1.88;94.83;97985.81;5075616;28;20048;-72
2022/01/18 05:46:03;;;;;;;6.45;5.85;;;;;;;-1.88;94.77;97988.34;5074875;28;20076;-71
2022/01/18 05:48:29;;;;;;;5.88;5.38;;;;;;;-1.91;95.20;98001.25;5075465;28;20477;-73
2022/01/18 05:50:59;;;;;;;8.43;7.55;;;;;;;-1.90;96.05;98016.56;5093295;28;20056;-73
2022/01/18 05:53:36;;;;;;;8.55;6.25;;;;;;;-1.87;96.26;98018.16;5098959;28;20421;-72
2022/01/18 05:56:06;;;;;;;8.52;7.07;;;;;;;-1.86;95.25;98017.25;5075786;28;20098;-72
2022/01/18 05:58:35;;;;;;;13.07;7.60;;;;;;;-1.87;95.42;98010.50;5093539;28;20133;-73
2022/01/18 06:01:01;;;;;;;7.55;5.72;;;;;;;-1.88;95.17;98047.16;5096660;28;20055;-72
2022/01/18 06:03:32;;;;;;;6.07;5.07;;;;;;;-1.89;94.92;98046.31;5111783;28;20511;-71
2022/01/18 06:08:44;;;;;;;10.75;5.97;;;;;;;-1.87;95.09;98066.72;5095483;28;20056;-71
2022/01/18 06:11:10;;;;;;;5.78;5.10;;;;;;;-1.90;95.19;98074.50;5076045;28;20044;-71
2022/01/18 06:13:38;;;;;;;6.38;5.90;;;;;;;-2.00;94.79;98068.03;5129016;27;20241;-72
2022/01/18 06:16:04;;;;;;;5.18;4.68;;;;;;;-2.13;94.71;98054.84;5115762;27;20071;-72
2022/01/18 06:18:30;;;;;;;5.07;4.68;;;;;;;-2.19;93.13;98072.91;5133731;27;20071;-72
2022/01/18 06:20:58;;;;;;;4.63;4.22;;;;;;;-2.21;94.04;98080.63;5065772;28;20453;-72
2022/01/18 06:23:24;;;;;;;6.05;4.85;;;;;;;-2.25;93.23;98079.06;5105823;28;20519;-73
2022/01/18 06:25:50;;;;;;;4.55;4.25;;;;;;;-2.30;93.42;98097.97;5081488;28;20154;-72
2022/01/18 06:28:16;;;;;;;5.03;3.95;;;;;;;-2.36;93.49;98096.47;5100407;27;20040;-74
2022/01/18 06:30:43;;;;;;;5.47;5.07;;;;;;;-2.37;93.40;98093.94;5084255;28;20198;-72
2022/01/18 06:33:09;;;;;;;4.82;4.43;;;;;;;-2.43;93.36;98107.75;5099448;27;20047;-74
2022/01/18 06:35:35;;;;;;;3.72;3.42;;;;;;;-2.48;93.67;98114.69;5076111;28;20135;-74
2022/01/18 06:38:01;;;;;;;4.70;4.05;;;;;;;-2.54;93.46;98117.44;5101266;27;20040;-74
2022/01/18 06:40:27;;;;;;;4.03;3.72;;;;;;;-2.50;93.33;98139.47;5085777;28;20135;-74
2022/01/18 06:42:53;;;;;;;4.43;4.00;;;;;;;-2.56;92.52;98143.91;5099734;27;20054;-74
2022/01/18 06:45:22;;;;;;;11.93;4.00;;;;;;;-2.56;92.98;98133.72;5107648;27;20051;-72
2022/01/18 06:47:48;;;;;;;9.50;3.22;;;;;;;-2.60;92.65;98157.66;5086305;28;20040;-72
2022/01/18 06:50:17;;;;;;;3.33;2.88;;;;;;;-2.59;92.55;98157.63;5098447;28;20071;-73
2022/01/18 06:52:46;;;;;;;4.55;3.20;;;;;;;-2.62;91.95;98175.59;5110883;28;20070;-72
2022/01/18 06:55:12;;;;;;;5.10;2.90;;;;;;;-2.59;93.23;98185.72;5090340;28;20045;-71
2022/01/18 06:57:38;;;;;;;3.55;3.25;;;;;;;-2.62;92.21;98190.91;5086718;28;20044;-73
2022/01/18 07:00:06;;;;;;;5.32;3.70;;;;;;;-2.57;92.30;98194.16;5106516;27;20425;-74
2022/01/18 07:02:32;;;;;;;4.35;4.03;;;;;;;-2.54;92.03;98188.94;5098052;27;20040;-73
2022/01/18 07:04:58;;;;;;;4.40;4.10;;;;;;;-2.60;91.76;98181.47;5079299;28;20075;-74
2022/01/18 07:07:27;;;;;;;3.53;3.15;;;;;;;-2.65;91.40;98201.22;5074297;28;20047;-71
2022/01/18 07:09:53;;;;;;;3.95;3.70;;;;;;;-2.63;91.26;98207.94;5079264;28;20067;-71
2022/01/18 07:12:19;;;;;;;2.67;2.58;;;;;;;-2.59;91.09;98203.59;5101314;28;20036;-72
2022/01/18 07:14:48;;;;;;;2.85;2.75;;;;;;;-2.62;90.49;98224.91;5098835;28;20500;-72
2022/01/18 07:17:14;;;;;;;3.92;3.63;;;;;;;-2.59;90.67;98235.94;5104541;27;20036;-72
2022/01/18 07:19:40;;;;;;;9.43;3.53;;;;;;;-2.66;89.89;98231.00;5080616;27;20059;-72
2022/01/18 07:22:06;;;;;;;3.83;3.63;;;;;;;-2.59;90.13;98244.44;5096582;28;20521;-72
2022/01/18 07:24:43;;;;;;;3.20;2.92;;;;;;;-2.62;90.33;98254.75;5099691;27;20476;-73
2022/01/18 07:27:10;;;;;;;5.50;3.90;;;;;;;-2.61;89.65;98266.63;5100176;28;20105;-73
2022/01/18 07:29:37;;;;;;;5.90;3.33;;;;;;;-2.69;90.38;98276.22;5090859;28;20067;-72
2022/01/18 07:32:04;;;;;;;5.78;3.42;;;;;;;-2.68;89.76;98267.66;5097630;28;20139;-72
2022/01/18 07:34:34;;;;;;;3.25;3.00;;;;;;;-2.60;88.99;98265.75;5080501;28;20047;-72
2022/01/18 07:37:01;;;;;;;9.05;4.03;;;;;;;-2.64;89.05;98290.53;5095271;27;20056;-73
2022/01/18 07:39:27;;;;;;;3.80;3.45;;;;;;;-2.67;88.87;98284.66;5098196;27;20418;-73
2022/01/18 07:41:53;;;;;;;3.28;3.05;;;;;;;-2.59;89.15;98297.22;5081435;27;20058;-72
2022/01/18 07:44:19;;;;;;;3.33;3.13;;;;;;;-2.65;88.25;98298.25;5079830;28;20066;-72
2022/01/18 07:46:45;;;;;;;9.82;2.92;;;;;;;-2.68;88.01;98300.84;5087821;28;20367;-72
2022/01/18 07:49:11;;;;;;;3.60;3.40;;;;;;;-2.64;88.04;98320.31;5089288;28;20325;-73
2022/01/18 07:51:37;;;;;;;3.25;3.05;;;;;;;-2.64;88.10;98330.53;5101324;27;20051;-72
2022/01/18 07:54:03;;;;;;;5.53;3.33;;;;;;;-2.72;88.04;98348.63;5099476;28;20047;-72
2022/01/18 07:56:29;;;;;;;3.70;3.47;;;;;;;-2.76;87.46;98341.94;5101709;28;20539;-73
2022/01/18 07:58:55;;;;;;;3.22;3.03;;;;;;;-2.78;86.91;98358.16;5101450;27;20048;-71
2022/01/18 08:01:21;;;;;;;3.35;3.15;;;;;;;-2.74;87.01;98375.06;5103016;27;20116;-72
2022/01/18 08:03:47;;;;;;;3.42;3.15;;;;;;;-2.75;87.00;98375.97;5097516;28;20047;-71
2022/01/18 08:06:13;;;;;;;4.50;3.85;;;;;;;-2.76;86.46;98381.94;5079082;28;20372;-71
2022/01/18 08:08:39;;;;;;;4.00;3.67;;;;;;;-2.84;86.16;98379.56;5092133;28;20423;-71
2022/01/18 08:11:08;;;;;;;3.00;2.80;;;;;;;-2.84;86.48;98387.22;5097261;27;20044;-72
2022/01/18 08:13:40;;;;;;;3.47;3.17;;;;;;;-2.90;85.51;98389.09;5064032;28;20415;-72
2022/01/18 08:17:00;;;;;;;3.65;3.20;;;;;;;-2.89;85.92;98399.28;5083718;28;20047;-72
2022/01/18 08:18:58;;;;;;;4.80;3.60;;;;;;;-2.91;85.40;98392.53;5094810;27;20061;-73
2022/01/18 08:21:27;;;;;;;4.32;3.75;;;;;;;-3.04;84.93;98427.69;5100934;28;20051;-73
2022/01/18 08:23:53;;;;;;;3.65;3.33;;;;;;;-2.95;85.87;98427.50;5097902;28;20192;-72
2022/01/18 08:26:19;;;;;;;3.40;3.20;;;;;;;-2.87;86.06;98440.06;5098978;27;20044;-72
2022/01/18 08:32:18;;;;;;;4.97;4.57;;;;;;;-2.82;87.11;98449.31;5100077;28;20051;-72
2022/01/18 08:34:44;;;;;;;4.25;3.63;;;;;;;-2.91;86.10;98461.44;5100413;28;20039;-73
2022/01/18 08:37:10;;;;;;;4.75;4.40;;;;;;;-2.81;86.57;98465.44;5079485;28;20101;-72
2022/01/18 08:39:36;;;;;;;6.68;3.92;;;;;;;-2.81;86.12;98447.56;5066824;28;20515;-72
2022/01/18 08:42:05;;;;;;;4.70;4.40;;;;;;;-2.99;85.97;98455.66;5093659;28;20048;-71
2022/01/18 08:44:31;;;;;;;3.92;3.63;;;;;;;-3.13;85.65;98478.09;5098781;28;20326;-72
2022/01/18 08:46:57;;;;;;;15.18;4.72;;;;;;;-3.21;83.84;98451.03;5099801;27;20130;-72
2022/01/18 08:49:23;;;;;;;4.03;3.70;;;;;;;-3.25;84.92;98481.78;5095631;28;20087;-72
2022/01/18 08:51:49;;;;;;;4.00;3.30;;;;;;;-3.28;83.75;98487.78;5100014;28;20566;-72
2022/01/18 08:54:15;;;;;;;4.57;4.15;;;;;;;-3.36;85.43;98504.97;5096610;28;20040;-71
2022/01/18 08:56:40;;;;;;;3.92;3.63;;;;;;;-3.27;85.22;98494.56;5095619;28;20047;-72
2022/01/18 08:59:09;;;;;;;4.53;4.13;;;;;;;-3.39;83.55;98479.53;5100420;28;20040;-73
2022/01/18 09:01:35;;;;;;;6.03;5.43;;;;;;;-3.53;83.42;98448.38;5097951;28;20474;-72
2022/01/18 09:04:02;;;;;;;6.55;5.95;;;;;;;-3.61;83.24;98503.78;5094385;28;20055;-71
2022/01/18 09:06:30;;;;;;;5.43;4.68;;;;;;;-3.46;82.51;98517.94;5100427;28;20054;-71
2022/01/18 09:08:57;;;;;;;4.60;3.95;;;;;;;-3.52;81.60;98500.22;5096748;28;20431;-71
2022/01/18 09:11:30;;;;;;;6.03;4.85;;;;;;;-3.55;82.15;98516.41;5101663;28;20093;-72
2022/01/18 09:13:57;;;;;;;15.65;5.85;;;;;;;-3.54;81.87;98558.06;5097040;27;20043;-72
2022/01/18 09:16:23;;;;;;;6.25;5.65;;;;;;;-3.63;82.44;98546.31;5096766;28;20071;-72
2022/01/18 09:18:50;;;;;;;4.22;3.92;;;;;;;-3.44;81.37;98565.50;5098329;28;20430;-73
2022/01/18 09:21:19;;;;;;;4.50;4.07;;;;;;;-3.57;81.29;98614.22;5095100;28;20048;-73
2022/01/18 09:23:45;;;;;;;9.63;5.50;;;;;;;-3.65;80.63;98575.25;5079425;28;20541;-73
2022/01/18 09:26:13;;;;;;;7.18;4.15;;;;;;;-3.74;80.14;98566.09;5074526;28;20129;-73
2022/01/18 09:28:42;;;;;;;3.78;3.50;;;;;;;-3.72;80.61;98585.56;5103611;28;20047;-73
2022/01/18 09:31:10;;;;;;;7.95;4.30;;;;;;;-3.71;78.58;98561.78;5087506;28;20124;-73
2022/01/18 09:33:39;;;;;;;4.13;3.72;;;;;;;-3.80;79.88;98596.78;5099343;28;20039;-72
2022/01/18 09:36:06;;;;;;;4.70;3.88;;;;;;;-3.76;80.13;98604.34;5103970;28;20426;-72
2022/01/18 09:38:32;;;;;;;3.83;3.53;;;;;;;-3.72;80.03;98608.50;5102376;28;20561;-72
2022/01/18 09:41:08;;;;;;;3.90;3.60;;;;;;;-3.59;81.04;98621.88;5087784;28;20048;-71
2022/01/18 09:43:34;;;;;;;2.63;2.42;;;;;;;-3.46;81.17;98632.69;5094679;28;20131;-72
2022/01/18 09:46:00;;;;;;;3.83;3.53;;;;;;;-3.63;81.83;98635.53;5086466;28;20508;-72
2022/01/18 09:48:26;;;;;;;3.42;3.22;;;;;;;-3.56;80.19;98637.13;5073177;28;20042;-71
2022/01/18 09:50:52;;;;;;;3.30;3.10;;;;;;;-3.53;79.24;98646.44;5096464;28;20418;-72
2022/01/18 09:53:18;;;;;;;3.28;3.08;;;;;;;-3.61;79.32;98651.66;5096736;28;20055;-72
2022/01/18 09:55:44;;;;;;;3.42;3.22;;;;;;;-3.53;79.25;98656.63;5065738;28;20036;-72
2022/01/18 09:58:11;;;;;;;3.35;3.15;;;;;;;-3.63;79.58;98671.22;5094039;28;20063;-73
2022/01/18 10:00:40;;;;;;;3.60;3.33;;;;;;;-3.57;79.71;98681.34;5062125;28;20039;-73
2022/01/18 10:03:09;;;;;;;2.78;2.67;;;;;;;-3.69;78.57;98662.00;5063535;28;20090;-71
2022/01/18 10:05:35;;;;;;;2.85;2.75;;;;;;;-3.64;78.43;98684.88;5077772;28;20047;-72
2022/01/18 10:08:03;;;;;;;2.60;2.50;;;;;;;-3.63;78.58;98683.97;5086111;28;20564;-72
2022/01/18 10:10:47;;;;;;;3.50;3.30;;;;;;;-3.64;78.27;98689.13;5099508;27;20098;-73
2022/01/18 10:13:15;;;;;;;2.70;2.55;;;;;;;-3.77;77.79;98681.69;5099984;28;20036;-73
2022/01/18 10:16:06;;;;;;;2.95;2.72;;;;;;;-3.73;78.73;98707.97;5098842;27;20434;-71
2022/01/18 10:18:49;;;;;;;3.33;3.13;;;;;;;-3.69;78.19;98689.19;5073447;28;20043;-71
2022/01/18 10:21:15;;;;;;;3.28;3.08;;;;;;;-3.75;77.53;98730.06;5103221;27;20162;-71
2022/01/18 10:23:48;;;;;;;2.42;2.30;;;;;;;-3.87;78.46;98707.34;5102816;27;20051;-71
2022/01/18 10:26:20;;;;;;;2.80;2.60;;;;;;;-3.82;78.57;98731.88;5083870;28;20044;-71
2022/01/18 10:28:46;;;;;;;;;;;;;;;-3.82;77.95;98720.84;5085567;28;20071;-73
2022/01/18 10:31:26;;;;;;;2.50;2.40;;;;;;;-3.90;77.88;98741.38;5090021;28;19927;-71
2022/01/18 10:34:20;;;;;;;3.35;3.10;;;;;;;-3.79;77.87;98743.72;5100401;28;20051;-72
2022/01/18 10:36:58;;;;;;;3.08;2.88;;;;;;;-3.81;76.51;98765.88;5099359;27;20044;-71
2022/01/18 10:39:26;;;;;;;2.58;2.40;;;;;;;-3.72;77.33;98758.06;5098617;27;20054;-71
2022/01/18 10:41:52;;;;;;;3.50;3.30;;;;;;;-4.11;76.87;98744.22;5080581;28;20478;-72
2022/01/18 10:44:22;;;;;;;3.65;3.28;;;;;;;-4.05;77.13;98786.59;5082238;28;20039;-71
2022/01/18 10:46:56;;;;;;;2.90;2.80;;;;;;;-4.09;76.84;98780.69;5074582;27;20051;-71
2022/01/18 10:49:39;;;;;;;2.60;2.40;;;;;;;-4.06;76.36;98762.00;5098624;27;20051;-72
2022/01/18 10:52:06;;;;;;;2.90;2.70;;;;;;;-4.06;76.58;98805.31;5089919;28;20044;-72
2022/01/18 10:54:39;;;;;;;2.70;2.50;;;;;;;-4.19;75.83;98799.53;5098644;27;20032;-72
2022/01/18 10:57:06;;;;;;;3.15;2.95;;;;;;;-4.13;76.44;98808.81;5096717;27;20098;-71
2022/01/18 10:59:33;;;;;;;3.90;3.60;;;;;;;-4.29;76.12;98798.78;5102174;28;20051;-72
2022/01/18 11:02:23;;;;;;;3.22;3.03;;;;;;;-4.34;75.97;98823.50;5096139;28;20055;-72
2022/01/18 11:04:56;;;;;;;2.92;2.72;;;;;;;-4.35;75.64;98821.78;5101660;27;20096;-72
2022/01/18 11:07:26;;;;;;;3.08;2.88;;;;;;;-4.31;76.30;98841.28;5102414;28;20134;-72
2022/01/18 11:09:53;;;;;;;2.65;2.53;;;;;;;-4.29;76.40;98842.09;5097133;28;20048;-72
2022/01/18 11:12:20;;;;;;;3.13;2.90;;;;;;;-4.25;76.10;98851.38;5099269;28;20048;-72
2022/01/18 11:14:51;;;;;;;3.72;3.42;;;;;;;-4.33;75.94;98844.72;5099141;27;20075;-72
2022/01/18 11:17:23;;;;;;;2.87;2.77;;;;;;;-4.33;75.97;98855.75;5080340;28;20559;-71
2022/01/18 11:19:50;;;;;;;3.58;3.38;;;;;;;-4.45;75.56;98863.50;5097816;28;20036;-71
2022/01/18 11:22:17;;;;;;;2.17;2.08;;;;;;;-4.33;75.15;98875.28;5106099;27;20079;-70
2022/01/18 11:24:44;;;;;;;3.10;2.90;;;;;;;-4.38;75.92;98894.84;5073828;28;20032;-70
2022/01/18 11:27:13;;;;;;;2.83;2.70;;;;;;;-4.44;75.66;98857.56;5087414;28;20053;-70
2022/01/18 11:29:41;;;;;;;3.10;2.80;;;;;;;-4.42;75.74;98888.97;5107987;27;20044;-71
2022/01/18 11:32:07;;;;;;;3.13;2.83;;;;;;;-4.37;74.95;98905.00;5089938;28;20138;-70
2022/01/18 11:34:55;;;;;;;2.92;2.72;;;;;;;-4.46;74.78;98904.28;5088957;28;20048;-70
2022/01/18 11:37:34;;;;;;;3.55;3.25;;;;;;;-4.52;74.24;98881.44;5107799;28;20047;-71
2022/01/18 11:40:03;;;;;;;3.20;3.00;;;;;;;-4.63;74.58;98906.97;5086477;28;20105;-71
2022/01/18 11:42:46;;;;;;;2.70;2.60;;;;;;;-4.76;75.51;98905.41;5106817;28;20392;-70
2022/01/18 11:45:27;;;;;;;3.45;3.25;;;;;;;-4.70;75.91;98930.81;5107745;27;20044;-71
2022/01/18 11:48:14;;;;;;;2.92;2.72;;;;;;;-4.67;74.88;98940.94;5106662;28;20043;-70
2022/01/18 11:50:43;;;;;;;4.68;3.45;;;;;;;-4.69;75.42;98952.88;5103547;27;20538;-71
2022/01/18 11:53:26;;;;;;;3.25;2.67;;;;;;;-4.62;75.70;98946.88;5106912;28;20054;-72
2022/01/18 11:55:56;;;;;;;3.05;2.75;;;;;;;-4.68;76.50;98967.28;5105977;28;20097;-74
2022/01/18 11:58:24;;;;;;;3.58;3.28;;;;;;;-4.83;76.83;98959.75;5100212;27;20098;-71
2022/01/18 12:00:56;;;;;;;5.30;3.53;;;;;;;-4.75;75.90;98958.00;5096477;28;20049;-71
2022/01/18 12:03:26;;;;;;;3.38;3.05;;;;;;;-4.76;75.90;98992.78;5096922;28;20142;-72
2022/01/18 12:05:52;;;;;;;2.70;2.50;;;;;;;-4.76;76.15;98984.31;5078810;28;20223;-72
2022/01/18 12:08:37;;;;;;;3.38;3.08;;;;;;;-4.73;76.67;99004.63;5093598;27;20063;-71
2022/01/18 12:11:19;;;;;;;3.88;2.97;;;;;;;-4.75;75.79;99012.31;5101866;28;20035;-72
2022/01/18 12:13:48;;;;;;;3.38;3.10;;;;;;;-4.75;77.08;99014.00;5088246;27;20125;-71
2022/01/18 12:16:19;;;;;;;2.80;2.60;;;;;;;-4.77;74.74;99020.78;5097175;28;20126;-71
2022/01/18 12:19:07;;;;;;;2.30;2.20;;;;;;;-4.79;75.13;99040.31;5088285;28;20043;-71
2022/01/18 12:21:34;;;;;;;3.17;2.97;;;;;;;-4.84;74.76;99039.50;5098536;27;20546;-72
2022/01/18 12:24:14;;;;;;;3.60;3.30;;;;;;;-4.82;75.05;99050.53;5078765;28;20048;-72
2022/01/18 12:26:48;;;;;;;3.05;2.85;;;;;;;-4.88;74.88;99058.19;5087659;27;20055;-71
2022/01/18 12:34:38;;;;;;;3.05;2.55;;;;;;;-5.13;74.44;99059.16;4978919;28;20149;-69
2022/01/18 12:37:11;;;;;;;5.22;3.45;;;;;;;-4.99;74.53;99076.06;4976982;28;20043;-69
2022/01/18 12:39:54;;;;;;;3.60;3.30;;;;;;;-5.03;74.62;99078.63;4976119;28;20145;-69
2022/01/18 12:45:23;;;;;;;6.70;2.40;;;;;;;-4.93;75.41;99098.94;4967284;28;20058;-67
2022/01/18 12:48:02;;;;;;;3.35;2.42;;;;;;;-5.04;74.71;99082.88;4985599;28;20057;-68
2022/01/18 12:50:38;;;;;;;2.97;2.78;;;;;;;-5.04;75.28;99082.88;4988983;28;20441;-68
2022/01/18 12:53:08;;;;;;;3.08;2.47;;;;;;;-5.03;75.74;99109.16;4984399;28;20571;-68
2022/01/18 12:55:45;;;;;;;4.10;3.72;;;;;;;-5.03;75.04;99116.78;4975535;28;20050;-68
2022/01/18 12:58:19;;;;;;;4.15;2.45;;;;;;;-5.02;74.07;99121.88;4985180;28;20048;-68
2022/01/18 13:00:48;;;;;;;3.50;3.20;;;;;;;-5.01;74.88;99125.28;4984545;28;20046;-69
2022/01/18 13:03:28;;;;;;;2.72;2.60;;;;;;;-5.07;74.03;99102.41;4992119;28;20046;-68
2022/01/18 13:05:56;;;;;;;3.83;3.53;;;;;;;-5.01;75.27;99151.56;4982419;28;20046;-68
2022/01/18 13:08:30;;;;;;;2.88;2.78;;;;;;;-5.02;75.35;99147.31;4985434;28;20042;-69
2022/01/18 13:10:56;;;;;;;3.50;3.22;;;;;;;-5.06;76.43;99170.22;4983789;28;20053;-69
2022/01/18 13:13:29;;;;;;;5.07;2.80;;;;;;;-5.05;76.68;99157.50;4991407;28;20129;-69